^^
Grace C. Lehan Memorial Weather Station Historical Data
Daily Summary for September 22, 2021 Units:  English    Metric   Both
Daily Weekly Monthly Yearly
  High: Low: Average:
Temperature: 79.6 °F 64.3 °F 70.8 °F
Dew Point: 72.4 °F 61.6 °F 67.3 °F
Humidity: 94% 74.5% 89%
Wind Speed: 2mph 0mph 0.1mph
Wind Gust: 11mph - -
Wind- - South
Pressure: 30.23 in 30.00 in -
Precipitation: 0.00 in    
 
 
Tabular Data for September 22, 2021
Time Temperature Dew Point Pressure Wind Wind Speed Wind Gust Humidity Rainfall Rate (Hourly) solar
00:00 64.3 °F 61.6 °F 30.23 in Calm     91% 0.00 in 0 W/m2
00:09 64.5 °F 61.8 °F 30.23 in Calm     91% 0.00 in 0 W/m2
00:14 64.5 °F 61.9 °F 30.23 in Calm     91% 0.00 in 0 W/m2
00:19 64.7 °F 62 °F 30.23 in Calm     91% 0.00 in 0 W/m2
00:24 64.8 °F 62.1 °F 30.23 in Calm     91% 0.00 in 0 W/m2
00:29 64.9 °F 62.2 °F 30.23 in Calm     91% 0.00 in 0 W/m2
00:34 64.9 °F 62.2 °F 30.23 in Calm     91% 0.00 in 0 W/m2
00:39 65 °F 62.3 °F 30.23 in Calm     91% 0.00 in 0 W/m2
00:44 65 °F 62.2 °F 30.23 in Calm     90.7% 0.00 in 0 W/m2
00:49 65.1 °F 62.1 °F 30.22 in Calm     90% 0.00 in 0 W/m2
00:54 65.1 °F 62.1 °F 30.22 in Calm     90% 0.00 in 0 W/m2
00:59 65.1 °F 62.1 °F 30.22 in Calm     90% 0.00 in 0 W/m2
01:04 65.1 °F 62.1 °F 30.22 in Calm     90% 0.00 in 0 W/m2
01:09 65.2 °F 62.2 °F 30.22 in Calm     90% 0.00 in 0 W/m2
01:14 65.2 °F 62.2 °F 30.22 in Calm     90% 0.00 in 0 W/m2
01:19 65.3 °F 62.3 °F 30.22 in Calm     90% 0.00 in 0 W/m2
01:24 65.4 °F 62.4 °F 30.21 in Calm     90% 0.00 in 0 W/m2
01:29 65.4 °F 62.4 °F 30.21 in Calm     90% 0.00 in 0 W/m2
01:34 65.4 °F 62.4 °F 30.21 in Calm     90% 0.00 in 0 W/m2
01:39 65.5 °F 62.5 °F 30.21 in Calm     90% 0.00 in 0 W/m2
01:44 65.5 °F 62.5 °F 30.21 in Calm   1 mph 90% 0.00 in 0 W/m2
01:49 65.5 °F 62.5 °F 30.20 in Calm   1 mph 90% 0.00 in 0 W/m2
01:54 65.6 °F 62.6 °F 30.20 in Calm   1 mph 90% 0.00 in 0 W/m2
01:59 65.6 °F 62.6 °F 30.20 in Calm   1 mph 90% 0.00 in 0 W/m2
02:04 65.6 °F 62.6 °F 30.20 in Calm   1 mph 90% 0.00 in 0 W/m2
02:09 65.6 °F 62.6 °F 30.20 in Calm     90% 0.00 in 0 W/m2
02:14 65.6 °F 62.8 °F 30.20 in Calm     90.7% 0.00 in 0 W/m2
02:19 65.6 °F 62.9 °F 30.20 in Calm     90.9% 0.00 in 0 W/m2
02:24 65.5 °F 62.9 °F 30.20 in Calm     91.2% 0.00 in 0 W/m2
02:29 65.5 °F 62.9 °F 30.20 in Calm     91.3% 0.00 in 0 W/m2
02:34 65.5 °F 62.9 °F 30.20 in Calm     91.3% 0.00 in 0 W/m2
02:39 65.4 °F 62.7 °F 30.19 in Calm     91% 0.00 in 0 W/m2
02:44 65.4 °F 62.7 °F 30.19 in Calm     91% 0.00 in 0 W/m2
02:49 65.5 °F 62.8 °F 30.19 in Calm     91% 0.00 in 0 W/m2
02:54 65.5 °F 62.8 °F 30.19 in Calm     91% 0.00 in 0 W/m2
02:59 65.5 °F 62.8 °F 30.19 in Calm     91% 0.00 in 0 W/m2
03:04 65.5 °F 62.9 °F 30.19 in Calm     91.1% 0.00 in 0 W/m2
03:09 65.6 °F 63.1 °F 30.19 in Calm     91.7% 0.00 in 0 W/m2
03:14 65.6 °F 63.2 °F 30.19 in Calm     92% 0.00 in 0 W/m2
03:19 65.6 °F 63.2 °F 30.18 in Calm     92% 0.00 in 0 W/m2
03:24 65.6 °F 63.2 °F 30.18 in Calm     92% 0.00 in 0 W/m2
03:29 65.6 °F 63.2 °F 30.18 in Calm     92% 0.00 in 0 W/m2
03:34 65.6 °F 63.2 °F 30.18 in Calm     92% 0.00 in 0 W/m2
03:39 65.6 °F 63.2 °F 30.18 in Calm     92% 0.00 in 0 W/m2
03:44 65.7 °F 63.3 °F 30.18 in Calm     92% 0.00 in 0 W/m2
03:49 65.7 °F 63.3 °F 30.18 in Calm     92% 0.00 in 0 W/m2
03:54 65.7 °F 63.3 °F 30.18 in Calm     92% 0.00 in 0 W/m2
03:59 65.8 °F 63.4 °F 30.18 in Calm     92% 0.00 in 0 W/m2
04:09 65.9 °F 63.5 °F 30.17 in Calm     92% 0.00 in 0 W/m2
04:14 65.9 °F 63.5 °F 30.17 in Calm     92% 0.00 in 0 W/m2
04:19 65.9 °F 63.5 °F 30.17 in Calm     92% 0.00 in 0 W/m2
04:24 65.9 °F 63.5 °F 30.17 in Calm     92% 0.00 in 0 W/m2
04:29 65.9 °F 63.7 °F 30.17 in Calm     92.7% 0.00 in 0 W/m2
04:34 65.9 °F 63.8 °F 30.17 in Calm     93% 0.00 in 0 W/m2
04:39 65.9 °F 63.8 °F 30.17 in Calm     93% 0.00 in 0 W/m2
04:44 65.9 °F 63.8 °F 30.17 in Calm     93% 0.00 in 0 W/m2
04:49 65.9 °F 63.8 °F 30.17 in Calm     93% 0.00 in 0 W/m2
04:54 66 °F 63.9 °F 30.17 in Calm     93% 0.00 in 0 W/m2
04:59 66 °F 63.9 °F 30.17 in Calm     93% 0.00 in 0 W/m2
05:04 66 °F 63.9 °F 30.16 in Calm     93% 0.00 in 0 W/m2
05:09 66 °F 63.9 °F 30.16 in Calm     93% 0.00 in 0 W/m2
05:14 66.1 °F 64 °F 30.16 in Calm     93% 0.00 in 0 W/m2
05:19 66.1 °F 64 °F 30.16 in Calm     93% 0.00 in 0 W/m2
05:24 66.1 °F 64 °F 30.16 in Calm     93% 0.00 in 0 W/m2
05:29 66.1 °F 64 °F 30.16 in Calm     93% 0.00 in 0 W/m2
05:34 66.1 °F 64 °F 30.16 in Calm     93% 0.00 in 0 W/m2
05:39 66.1 °F 64 °F 30.16 in Calm     93% 0.00 in 0 W/m2
05:44 66.1 °F 64 °F 30.15 in Calm     93% 0.00 in 0 W/m2
05:49 66.1 °F 64 °F 30.15 in Calm     93% 0.00 in 0 W/m2
05:54 66.1 °F 64 °F 30.15 in Calm     93% 0.00 in 0 W/m2
05:59 66.1 °F 64 °F 30.15 in Calm     93% 0.00 in 0 W/m2
06:04 66.2 °F 64.1 °F 30.15 in Calm     93% 0.00 in 0 W/m2
06:09 66.2 °F 64.1 °F 30.15 in Calm     93% 0.00 in 0 W/m2
06:14 66.2 °F 64.1 °F 30.15 in Calm     93% 0.00 in 0 W/m2
06:19 66.2 °F 64.1 °F 30.15 in Calm     93% 0.00 in 0 W/m2
06:24 66.2 °F 64.1 °F 30.15 in Calm     93% 0.00 in 0 W/m2
06:29 66.2 °F 64.1 °F 30.15 in Calm     93% 0.00 in 0 W/m2
06:34 66.2 °F 64.1 °F 30.15 in Calm     93% 0.00 in 0 W/m2
06:39 66.2 °F 64.1 °F 30.15 in ESE 0.1 mph 2 mph 93% 0.00 in 0 W/m2
06:44 66.2 °F 64.1 °F 30.15 in Calm   2 mph 93% 0.00 in 0 W/m2
06:49 66.2 °F 64.1 °F 30.15 in Calm   2 mph 93% 0.00 in 0 W/m2
06:54 66.2 °F 64.2 °F 30.15 in Calm   2 mph 93% 0.00 in 5 W/m2
06:59 66.3 °F 64.2 °F 30.15 in Calm   2 mph 93% 0.00 in 5 W/m2
07:04 66.3 °F 64.2 °F 30.15 in Calm   2 mph 93% 0.00 in 7 W/m2
07:09 66.3 °F 64.2 °F 30.15 in Calm     93% 0.00 in 9 W/m2
07:14 66.4 °F 64.3 °F 30.15 in Calm     93% 0.00 in 19 W/m2
07:19 66.4 °F 64.3 °F 30.15 in Calm     93% 0.00 in 19 W/m2
07:24 66.5 °F 64.4 °F 30.15 in Calm     93% 0.00 in 32 W/m2
07:29 66.5 °F 64.4 °F 30.15 in Calm     93% 0.00 in 37 W/m2
07:34 66.6 °F 64.8 °F 30.14 in Calm     94% 0.00 in 37 W/m2
07:39 66.7 °F 64.9 °F 30.14 in Calm     94% 0.00 in 33 W/m2
07:44 66.8 °F 65 °F 30.14 in Calm     94% 0.00 in 32 W/m2
07:49 66.9 °F 65.1 °F 30.14 in Calm     94% 0.00 in 28 W/m2
07:54 67 °F 65.3 °F 30.14 in Calm     94% 0.00 in 28 W/m2
07:59 67.2 °F 65.4 °F 30.14 in Calm     94% 0.00 in 37 W/m2
08:00 67.2 °F 65.4 °F 30.14 in Calm     94% 0.00 in 37 W/m2
08:09 67.4 °F 65.6 °F 30.14 in Calm     94% 0.00 in 62 W/m2
08:14 67.6 °F 65.8 °F 30.14 in Calm     94% 0.00 in 95 W/m2
08:19 67.7 °F 65.9 °F 30.14 in Calm     94% 0.00 in 83 W/m2
08:24 67.9 °F 66.1 °F 30.14 in Calm     94% 0.00 in 53 W/m2
08:29 68.1 °F 66.3 °F 30.14 in Calm     94% 0.00 in 81 W/m2
08:34 68.3 °F 66.6 °F 30.14 in Calm     94% 0.00 in 116 W/m2
08:39 68.7 °F 66.9 °F 30.14 in Calm     94% 0.00 in 209 W/m2
08:44 69.1 °F 67.3 °F 30.14 in Calm     94% 0.00 in 206 W/m2
08:49 69.6 °F 67.8 °F 30.14 in Calm     94% 0.00 in 206 W/m2
08:54 70.2 °F 68.2 °F 30.13 in Calm     93.6% 0.00 in 125 W/m2
08:59 70.6 °F 68.5 °F 30.13 in Calm     93% 0.00 in 125 W/m2
09:04 71.1 °F 68.8 °F 30.13 in Calm     92.5% 0.00 in 137 W/m2
09:09 71.5 °F 69.2 °F 30.13 in ESE 0.1 mph 2 mph 92.2% 0.00 in 158 W/m2
09:14 72 °F 69.5 °F 30.13 in Calm   2 mph 92% 0.00 in 178 W/m2
09:19 72.4 °F 69.9 °F 30.13 in Calm   2 mph 91.8% 0.00 in 156 W/m2
09:24 72.8 °F 70 °F 30.13 in ESE 0.1 mph 2 mph 91% 0.00 in 165 W/m2
09:29 73.1 °F 70.3 °F 30.13 in ESE 0.1 mph 2 mph 90.9% 0.00 in 165 W/m2
09:34 73.5 °F 70.4 °F 30.13 in Calm   2 mph 90.1% 0.00 in 123 W/m2
09:39 73.8 °F 70.7 °F 30.13 in Calm     90% 0.00 in 251 W/m2
09:44 74 °F 70.9 °F 30.13 in Calm   1 mph 90% 0.00 in 251 W/m2
09:49 74.3 °F 70.9 °F 30.13 in ESE 0.2 mph 5 mph 89.2% 0.00 in 260 W/m2
09:54 74.7 °F 71.2 °F 30.12 in SSE 0.2 mph 5 mph 89% 0.00 in 262 W/m2
09:59 75.1 °F 71.3 °F 30.12 in Calm   5 mph 88.2% 0.00 in 304 W/m2
10:04 75.4 °F 71.6 °F 30.12 in Calm   5 mph 87.8% 0.00 in 214 W/m2
10:09 75.8 °F 71.7 °F 30.12 in Calm   1 mph 87% 0.00 in 425 W/m2
10:14 76.2 °F 71.8 °F 30.12 in Calm   1 mph 86.2% 0.00 in 367 W/m2
10:16 76.5 °F 72 °F 30.12 in South 0.4 mph 2 mph 86% 0.00 in 278 W/m2
10:30 77 °F 71.8 °F 30.12 in Calm   3 mph 84% 0.00 in 249 W/m2
11:00 78 °F 72.1 °F 30.11 in SSW 1 mph 6 mph 82% 0.00 in 283 W/m2
11:30 78.6 °F 72.3 °F 30.10 in Calm   4 mph 81% 0.00 in 271 W/m2
12:04 78.3 °F 71.3 °F 30.08 in Calm     79% 0.00 in 223 W/m2
12:09 78.2 °F 71 °F 30.08 in South 0.4 mph 3 mph 78.5% 0.00 in 248 W/m2
12:14 78.2 °F 70.9 °F 30.08 in South 0.5 mph 5 mph 78.4% 0.00 in 287 W/m2
12:19 78.3 °F 71.3 °F 30.08 in Calm   5 mph 79% 0.00 in 294 W/m2
12:24 78.6 °F 71.6 °F 30.08 in SSW 0.1 mph 5 mph 79% 0.00 in 380 W/m2
12:29 78.9 °F 71.9 °F 30.08 in SSW 0.3 mph 5 mph 79% 0.00 in 429 W/m2
12:34 79.3 °F 71.8 °F 30.08 in SSW 0.3 mph 5 mph 77.8% 0.00 in 355 W/m2
12:39 79.6 °F 71.6 °F 30.07 in South 1 mph 5 mph 76.7% 0.00 in 301 W/m2
12:44 79.5 °F 71 °F 30.08 in SSW 0.6 mph 5 mph 75.4% 0.00 in 292 W/m2
12:49 79.5 °F 70.8 °F 30.07 in South 0.8 mph 5 mph 74.8% 0.00 in 257 W/m2
12:54 79.4 °F 70.6 °F 30.07 in SSW 0.8 mph 7 mph 74.5% 0.00 in 237 W/m2
12:59 79.3 °F 70.5 °F 30.07 in South 0.6 mph 7 mph 74.7% 0.00 in 220 W/m2
13:04 79.1 °F 70.5 °F 30.07 in Calm   7 mph 75.2% 0.00 in 200 W/m2
13:09 78.8 °F 71.2 °F 30.07 in SSE 0.3 mph 4 mph 77.5% 0.00 in 176 W/m2
13:14 78.3 °F 71.7 °F 30.07 in Calm   4 mph 80.3% 0.00 in 181 W/m2
13:19 77.7 °F 72 °F 30.07 in South 0.1 mph 4 mph 82.6% 0.00 in 165 W/m2
13:24 77.3 °F 72.1 °F 30.06 in Calm   4 mph 84% 0.00 in 149 W/m2
13:29 77 °F 72.2 °F 30.06 in Calm   4 mph 85.2% 0.00 in 139 W/m2
13:34 76.8 °F 72.2 °F 30.06 in Calm   4 mph 85.7% 0.00 in 118 W/m2
13:39 76.7 °F 72.2 °F 30.06 in Calm     86% 0.00 in 169 W/m2
13:44 76.6 °F 72.1 °F 30.06 in SSE 0.1 mph 2 mph 86% 0.00 in 251 W/m2
13:49 76.6 °F 71.6 °F 30.05 in SSE 0.3 mph 3 mph 84.3% 0.00 in 288 W/m2
13:54 77 °F 71.8 °F 30.05 in Calm   3 mph 84% 0.00 in 265 W/m2
13:59 77.3 °F 71.9 °F 30.05 in South 0.1 mph 3 mph 83.4% 0.00 in 258 W/m2
14:04 77.6 °F 71.6 °F 30.05 in SSE 0.1 mph 3 mph 81.8% 0.00 in 183 W/m2
14:09 77.7 °F 71.1 °F 30.05 in Calm   2 mph 80.1% 0.00 in 176 W/m2
14:14 77.7 °F 71.2 °F 30.05 in SSE 0.1 mph 2 mph 80.2% 0.00 in 178 W/m2
14:19 77.7 °F 71 °F 30.04 in SSE 0.2 mph 3 mph 80% 0.00 in 185 W/m2
14:24 77.7 °F 71 °F 30.04 in Calm   3 mph 80% 0.00 in 146 W/m2
14:29 77.6 °F 71 °F 30.04 in SSE 0.6 mph 4 mph 80% 0.00 in 141 W/m2
14:34 77.5 °F 71.1 °F 30.04 in South 1.4 mph 9 mph 80.7% 0.00 in 156 W/m2
14:39 77.4 °F 71.1 °F 30.04 in SSE 0.4 mph 9 mph 81% 0.00 in 158 W/m2
14:44 77.4 °F 71.1 °F 30.04 in South 0.1 mph 9 mph 81% 0.00 in 171 W/m2
14:49 77.4 °F 71.1 °F 30.03 in South 0.1 mph 9 mph 81% 0.00 in 181 W/m2
14:54 77.4 °F 71.1 °F 30.03 in South 0.3 mph 9 mph 81% 0.00 in 223 W/m2
14:59 77.4 °F 70.9 °F 30.03 in SSE 0.3 mph 9 mph 80.3% 0.00 in 225 W/m2
15:04 77.4 °F 70.8 °F 30.03 in South 0.4 mph 9 mph 80% 0.00 in 213 W/m2
15:09 77.5 °F 70.9 °F 30.03 in South 0.2 mph 5 mph 80.2% 0.00 in 213 W/m2
15:14 77.5 °F 70.9 °F 30.03 in South 0.3 mph 5 mph 80% 0.00 in 338 W/m2
15:19 77.6 °F 71 °F 30.03 in South 0.9 mph 6 mph 80% 0.00 in 255 W/m2
15:24 77.8 °F 71.1 °F 30.03 in South 1 mph 9 mph 80% 0.00 in 255 W/m2
15:29 77.9 °F 70.6 °F 30.03 in South 0.4 mph 9 mph 78.3% 0.00 in 220 W/m2
15:34 78 °F 70.6 °F 30.03 in South 2 mph 11 mph 78% 0.00 in 292 W/m2
15:39 78 °F 70.5 °F 30.02 in South 0.4 mph 11 mph 77.7% 0.00 in 230 W/m2
15:44 78.1 °F 70.7 °F 30.02 in South 0.4 mph 11 mph 78% 0.00 in 146 W/m2
15:49 77.9 °F 70.7 °F 30.02 in ESE 0.4 mph 11 mph 78.6% 0.00 in 139 W/m2
15:54 77.7 °F 70.7 °F 30.02 in South 0.8 mph 11 mph 79% 0.00 in 171 W/m2
15:59 77.6 °F 70.8 °F 30.02 in SSE 0.2 mph 11 mph 79.7% 0.00 in 160 W/m2
16:09 77.5 °F 71 °F 30.02 in Calm     80.5% 0.00 in 132 W/m2
16:14 77.6 °F 71.3 °F 30.02 in Calm   2 mph 81% 0.00 in 109 W/m2
16:19 77.6 °F 71.2 °F 30.01 in South 0.2 mph 3 mph 80.6% 0.00 in 148 W/m2
16:24 77.5 °F 71 °F 30.01 in South 0.1 mph 3 mph 80.4% 0.00 in 186 W/m2
16:29 77.7 °F 71.4 °F 30.01 in SSW 0.3 mph 5 mph 81% 0.00 in 185 W/m2
16:34 77.8 °F 71.2 °F 30.01 in SSW 0.3 mph 5 mph 80.2% 0.00 in 142 W/m2
16:39 77.8 °F 71.4 °F 30.01 in Calm   4 mph 80.6% 0.00 in 146 W/m2
17:00 76.9 °F 71.7 °F 30.00 in Calm   9 mph 84% 0.02 in 83 W/m2
17:30 75.2 °F 72.4 °F 30.01 in Calm     91% 0.03 in 37 W/m2
18:00 74.9 °F 71.8 °F 30.00 in Calm   3 mph 90% 0.03 in 47 W/m2
18:30 74.5 °F 71.1 °F 30.01 in Calm   7 mph 89% 0.01 in 9 W/m2
19:00 74.3 °F 71.2 °F 30.00 in Calm     90% 0.00 in 0 W/m2
19:30 73.3 °F 70.5 °F 30.01 in Calm   3 mph 91% 0.01 in 0 W/m2
20:04 72.5 °F 70.4 °F 30.01 in Calm     93% 0.01 in 0 W/m2
20:09 72.5 °F 70.3 °F 30.01 in Calm     93% 0.01 in 0 W/m2
20:14 72.4 °F 70.3 °F 30.01 in Calm     93% 0.01 in 0 W/m2
20:19 72.4 °F 70.3 °F 30.01 in Calm     93% 0.01 in 0 W/m2
20:24 72.3 °F 70.2 °F 30.01 in Calm     93% 0.01 in 0 W/m2
20:29 72.3 °F 70.2 °F 30.01 in Calm     93% 0.01 in 0 W/m2
20:34 72.2 °F 70.2 °F 30.01 in Calm     93.5% 0.01 in 0 W/m2
20:39 72.2 °F 70.4 °F 30.01 in Calm     94% 0.00 in 0 W/m2
20:44 72.1 °F 70.3 °F 30.01 in Calm     94% 0.00 in 0 W/m2
20:49 72.1 °F 70.3 °F 30.01 in Calm     94% 0.00 in 0 W/m2
20:54 72.1 °F 70.3 °F 30.01 in Calm     94% 0.00 in 0 W/m2
20:59 72.1 °F 70.3 °F 30.01 in Calm     94% 0.00 in 0 W/m2
21:04 72.2 °F 70.3 °F 30.02 in Calm     94% 0.00 in 0 W/m2
21:09 72.2 °F 70.4 °F 30.02 in Calm     94% 0.00 in 0 W/m2
21:14 72.2 °F 70.4 °F 30.02 in Calm     94% 0.00 in 0 W/m2
21:16 72.2 °F 70.4 °F 30.01 in Calm     94% 0.00 in 0 W/m2
21:30 72.3 °F 70.5 °F 30.02 in Calm     94% 0.00 in 0 W/m2
22:00 72.2 °F 70.4 °F 30.02 in Calm   5 mph 94% 0.00 in 0 W/m2
22:30 72.2 °F 70.4 °F 30.02 in Calm   2 mph 94% 0.00 in 0 W/m2
23:00 72.1 °F 70.3 °F 30.01 in Calm   2 mph 94% 0.00 in 0 W/m2
23:30 72.2 °F 70.4 °F 30.02 in Calm   1 mph 94% 0.00 in 0 W/m2
Hartford County Weather
Compliments of Weather Underground - 4 mb